Bridgewater, Maine
Current Conditions -  °F | °C
As of 12:35 AM on Thursday 23 Oct 2014 (Local Time) from KPQI Reporting Station
Overcast Overcast  
Wind Chill:   Ceiling: 3800
Heat Index:   Visibility: 10mi
Dew Point:   Wind: 9mph
Humidity: 71%   Direction: 40°NE
Pressure: 30.27"   Gusts: NA
Location:  46.43°N, 67.84°W
Report Text: KPQI 230435Z AUTO 04008KT 10SM OVC038 07/02 A3027 RMK AO1
Loading
Personal Weather Stations






























Interactive Weather Map
Tropical Storm Tracking
New forecast layout! Learn more

10-Day Weather Forecast

Advertisements
Track Severe Weather on mobile